Victoria, TX (77901)

6:22 AM CDT on August 01, 2015 (GMT -0500)
Inwood Terrace | | Change Station
CLOSE
Current Station
Personal Weather Station
Location: Victoria, TX
Elevation: 128 ft
Nearby Weather Stations

Elev 128 ft 28.83 °N, 96.97 °W | Updated 10 minutes ago

Clear
Clear
74.5 °F
Feels Like 72 °F
N
0.0
Wind Variable Wind from SE

Today
High -- | Low -- °F
--% Chance of Precip.
Yesterday
High -- | Low -- °F
Precip. -- in
6:49 AM 8:19 PM
Full, 99% visible
Pressure 29.94 in
Visibility 7.0 miles
Clouds Clear
Heat Index 72 °F
Dew Point 73 °F
Humidity 96%
Rainfall 0.00 in
Snow Depth Not available.
UV 0 out of 12
Pollen 4.30 out of 12
Air Quality Not available.
Flu Activity Not available.
METAR KVCT 011051Z AUTO 35004KT 7SM CLR 22/22 A2994 RMK AO2 SLP136 T02220222

More Conditions Fewer Conditions

Pressure 29.94 in
Visibility 7.0 miles
Clouds Clear
Heat Index 72 °F
Dew Point 73 °F
Humidity 96%
Rainfall 0.00 in
Snow Depth Not available.
UV 0 out of 12
Pollen 4.30 out of 12
Air Quality Not available.
Flu Activity Not available.
METAR KVCT 011051Z AUTO 35004KT 7SM CLR 22/22 A2994 RMK AO2 SLP136 T02220222

More Conditions Fewer Conditions

10-Day Weather Forecast

×

Almanac

Astronomy

Aug. 01, 2015 Rise Set
Actual Time
Civil Twilight
Nautical Twilight
Astronomical Twilight
Moon
Length of Visible Light
Length of Day
Tomorrow will be .
, % of the Moon is Illuminated

Today's Extremes

State Highs State Lows

Community

WunderPhotos

Upload Photos

1,842,905 photos uploaded!

WunderBlogs® & News

Nearby

Air Quality

  Air Quality AQ Index Pollutant
Not available.

Snow Depth

Station Depth Elevation

Earthquake Activity

City Distance Mag. Time & Date
Minimum magnitude displayed is 2.5.

Coastal Water Temperatures

Place Temperature

Stations

Nearby Weather Stations

Station Location Temp. Windchill Dew Point Humidity Wind Precip. Elev Updated Type